Time;durP1;ratioP1;P1;durP2;ratioP2;P2;SDS_P1;SDS_P2;PMS_P1;PMS_P2;Temp;Humidity;BMP_temperature;BMP_pressure;BME280_temperature;BME280_humidity;BME280_pressure;Samples;Min_cycle;Max_cycle;Signal;HPM_P1;HPM_P2
2023/06/01 00:01:14;;;;;;;26.92;14.07;;;;;;;10.97;100.00;102439.56;10277770;28;20047;-76
2023/06/01 00:06:14;;;;;;;17.98;11.23;;;;;;;10.95;100.00;102431.63;10311107;28;20030;-76
2023/06/01 00:11:15;;;;;;;20.90;13.45;;;;;;;11.02;100.00;102435.38;10310055;28;20049;-76
2023/06/01 00:16:17;;;;;;;23.83;12.43;;;;;;;11.05;100.00;102431.50;10294578;28;20038;-77
2023/06/01 00:21:21;;;;;;;15.45;11.80;;;;;;;11.00;100.00;102429.25;10293679;28;20062;-77
2023/06/01 00:26:23;;;;;;;12.07;9.30;;;;;;;10.97;100.00;102434.16;10292911;28;20446;-76
2023/06/01 00:31:25;;;;;;;14.35;9.30;;;;;;;10.93;100.00;102418.22;10261411;28;20050;-76
2023/06/01 00:36:26;;;;;;;21.92;11.55;;;;;;;11.09;100.00;102427.44;10261377;28;20027;-76
2023/06/01 00:41:28;;;;;;;14.85;9.93;;;;;;;11.19;100.00;102422.72;10292811;28;20043;-76
2023/06/01 00:46:29;;;;;;;18.42;10.55;;;;;;;11.29;100.00;102422.59;10260119;28;20027;-76
2023/06/01 00:51:31;;;;;;;13.70;7.40;;;;;;;11.29;100.00;102422.59;10276018;28;20480;-77
2023/06/01 00:56:37;;;;;;;12.27;7.38;;;;;;;11.30;100.00;102425.16;10260326;28;20105;-76
2023/06/01 01:01:42;;;;;;;13.77;7.43;;;;;;;11.33;100.00;102430.25;10276795;28;20059;-76
2023/06/01 01:07:00;;;;;;;11.18;6.82;;;;;;;11.31;100.00;102418.69;10277030;28;20038;-77
2023/06/01 01:12:32;;;;;;;14.57;7.60;;;;;;;11.40;100.00;102425.84;10278184;28;20132;-76
2023/06/01 01:17:46;;;;;;;20.73;9.10;;;;;;;11.47;100.00;102431.44;10292091;28;20068;-76
2023/06/01 01:23:12;;;;;;;18.77;8.55;;;;;;;11.45;100.00;102427.19;10260088;28;20410;-76
2023/06/01 01:28:28;;;;;;;15.32;8.82;;;;;;;11.40;100.00;102425.84;10276354;28;20042;-76
2023/06/01 01:33:29;;;;;;;13.75;9.32;;;;;;;11.39;100.00;102424.16;10275118;28;20027;-76
2023/06/01 01:38:36;;;;;;;9.95;8.95;;;;;;;11.43;100.00;102423.81;10269952;28;20038;-76
2023/06/01 01:43:44;;;;;;;15.73;8.57;;;;;;;11.47;100.00;102436.88;10275345;28;20027;-76
2023/06/01 01:49:18;;;;;;;10.60;8.40;;;;;;;11.37;100.00;102420.75;10290586;28;20494;-76
2023/06/01 01:54:29;;;;;;;16.20;9.82;;;;;;;11.54;100.00;102421.63;10291322;28;20070;-76
2023/06/01 01:59:36;;;;;;;13.70;8.20;;;;;;;11.63;100.00;102414.34;10294529;28;20078;-76
2023/06/01 02:04:41;;;;;;;13.20;9.02;;;;;;;11.68;100.00;102420.16;10315057;28;20039;-76
2023/06/01 02:09:49;;;;;;;11.13;9.25;;;;;;;11.63;100.00;102414.34;10314057;28;20045;-76
2023/06/01 02:14:51;;;;;;;14.13;8.07;;;;;;;11.52;100.00;102399.25;10283015;28;20043;-76
2023/06/01 02:19:51;;;;;;;17.80;9.98;;;;;;;11.54;100.00;102399.06;10313246;28;20035;-76
2023/06/01 02:24:52;;;;;;;21.45;9.40;;;;;;;11.48;100.00;102399.75;10281866;28;20055;-76
2023/06/01 02:29:53;;;;;;;13.27;8.73;;;;;;;11.44;100.00;102399.22;10264575;28;20126;-76
2023/06/01 02:34:53;;;;;;;17.35;8.60;;;;;;;11.33;100.00;102397.69;10266064;28;20562;-76
2023/06/01 02:39:54;;;;;;;12.73;9.40;;;;;;;11.20;100.00;102393.75;10280799;28;20137;-76
2023/06/01 02:44:55;;;;;;;12.15;8.27;;;;;;;11.25;100.00;102397.66;10281122;28;20069;-76
2023/06/01 02:49:55;;;;;;;10.57;8.13;;;;;;;11.22;100.00;102398.00;10279478;28;20554;-76
2023/06/01 02:54:57;;;;;;;16.52;8.05;;;;;;;11.18;100.00;102393.91;10280378;28;20038;-76
2023/06/01 02:59:59;;;;;;;15.68;8.20;;;;;;;11.17;100.00;102397.66;10279232;28;20078;-76
2023/06/01 03:05:06;;;;;;;13.05;9.07;;;;;;;11.09;100.00;102403.88;10280188;28;20038;-76
2023/06/01 03:10:07;;;;;;;18.13;10.57;;;;;;;11.02;100.00;102393.88;10279469;28;20042;-76
2023/06/01 03:15:09;;;;;;;19.80;9.98;;;;;;;11.11;100.00;102399.16;10278734;28;20034;-76
2023/06/01 03:20:15;;;;;;;12.00;7.97;;;;;;;11.13;100.00;102409.81;10279143;28;20047;-76
2023/06/01 03:25:16;;;;;;;8.52;7.63;;;;;;;11.18;100.00;102407.47;10281111;28;20453;-76
2023/06/01 03:30:18;;;;;;;16.60;9.40;;;;;;;11.06;100.00;102397.94;10279660;28;20041;-76
2023/06/01 03:35:19;;;;;;;16.77;10.15;;;;;;;11.10;100.00;102407.44;10292242;28;20051;-76
2023/06/01 03:40:21;;;;;;;17.10;11.20;;;;;;;11.15;100.00;102407.81;10295842;28;20039;-76
2023/06/01 03:45:22;;;;;;;15.88;10.93;;;;;;;11.13;100.00;102397.09;10277678;28;20049;-76
2023/06/01 03:50:22;;;;;;;13.73;10.20;;;;;;;11.20;100.00;102400.03;10277737;28;20038;-76
2023/06/01 03:55:23;;;;;;;17.40;10.70;;;;;;;11.24;100.00;102404.09;10293956;28;20121;-76
2023/06/01 04:00:24;;;;;;;14.73;11.13;;;;;;;11.25;100.00;102405.78;10262419;28;20113;-76
2023/06/01 04:05:25;;;;;;;15.55;10.25;;;;;;;11.31;100.00;102396.16;10293824;28;20541;-76
2023/06/01 04:10:27;;;;;;;15.13;9.80;;;;;;;11.35;100.00;102401.06;10309254;28;20398;-76
2023/06/01 04:15:28;;;;;;;18.38;10.02;;;;;;;11.21;100.00;102401.72;10261577;28;20110;-76
2023/06/01 04:20:31;;;;;;;15.38;8.25;;;;;;;11.44;100.00;102398.38;10276543;28;20090;-76
2023/06/01 04:25:31;;;;;;;13.65;9.23;;;;;;;11.60;100.00;102404.69;10262398;28;20447;-76
2023/06/01 04:30:33;;;;;;;11.10;8.25;;;;;;;11.61;100.00;102406.41;10261020;28;20114;-76
2023/06/01 04:35:34;;;;;;;13.90;8.43;;;;;;;11.62;100.00;102405.38;10275979;28;20049;-76
2023/06/01 04:40:34;;;;;;;20.10;9.23;;;;;;;11.69;100.00;102402.84;10261529;28;20126;-76
2023/06/01 04:45:38;;;;;;;13.40;7.20;;;;;;;11.73;100.00;102414.19;10259881;28;20398;-76
2023/06/01 04:50:40;;;;;;;20.63;8.00;;;;;;;11.56;100.00;102419.59;10261008;28;20046;-76
2023/06/01 04:55:44;;;;;;;15.75;9.75;;;;;;;11.61;100.00;102419.09;10260232;28;20463;-77
2023/06/01 05:00:45;;;;;;;11.63;7.70;;;;;;;11.80;100.00;102416.06;10260230;28;20035;-76
2023/06/01 05:05:46;;;;;;;10.95;7.80;;;;;;;11.94;100.00;102422.75;10307891;28;20532;-76
2023/06/01 05:10:46;;;;;;;9.18;7.63;;;;;;;12.01;100.00;102420.19;10275627;28;20106;-76
2023/06/01 05:15:47;;;;;;;10.93;7.97;;;;;;;12.11;100.00;102412.72;10258555;28;20034;-76
2023/06/01 05:20:47;;;;;;;9.10;6.78;;;;;;;12.28;100.00;102406.25;10259489;28;20055;-79
2023/06/01 05:25:48;;;;;;;14.35;8.88;;;;;;;12.32;100.00;102407.59;10201755;28;20556;-76
2023/06/01 05:30:48;;;;;;;13.15;8.95;;;;;;;12.51;100.00;102409.09;10275162;28;20027;-76
2023/06/01 05:35:48;;;;;;;10.25;8.32;;;;;;;12.54;100.00;102402.47;10258587;28;20129;-76
2023/06/01 05:40:49;;;;;;;16.67;8.18;;;;;;;12.34;100.00;102413.69;10258888;28;20102;-76
2023/06/01 05:45:49;;;;;;;25.70;8.85;;;;;;;12.42;100.00;102414.72;10275388;28;20101;-76
2023/06/01 05:50:50;;;;;;;16.80;8.95;;;;;;;12.66;100.00;102424.69;10292045;28;20458;-76
2023/06/01 05:55:53;;;;;;;15.57;9.02;;;;;;;12.76;100.00;102415.31;10258232;28;20043;-76
2023/06/01 06:00:54;;;;;;;21.65;8.35;;;;;;;12.93;100.00;102413.38;10274758;28;20501;-76
2023/06/01 06:05:55;;;;;;;16.50;10.15;;;;;;;12.92;100.00;102414.41;10293055;28;20078;-76
2023/06/01 06:10:56;;;;;;;14.52;10.20;;;;;;;13.12;100.00;102414.84;10291088;28;20035;-76
2023/06/01 06:15:56;;;;;;;24.50;11.43;;;;;;;13.24;100.00;102412.53;10291426;28;20039;-76
2023/06/01 06:20:57;;;;;;;13.43;9.18;;;;;;;13.38;100.00;102405.53;10274293;28;20085;-76
2023/06/01 06:25:57;;;;;;;15.10;9.63;;;;;;;13.60;100.00;102404.72;10258198;28;20045;-76
2023/06/01 06:30:58;;;;;;;13.50;9.93;;;;;;;13.77;100.00;102404.59;10273694;28;20140;-76
2023/06/01 06:35:58;;;;;;;19.35;8.82;;;;;;;13.65;100.00;102404.16;10274319;28;20465;-77
2023/06/01 06:40:59;;;;;;;19.05;9.13;;;;;;;13.83;100.00;102410.16;10291485;28;20041;-76
2023/06/01 06:45:59;;;;;;;14.60;10.00;;;;;;;13.83;100.00;102409.31;10277136;28;20045;-76
2023/06/01 06:51:00;;;;;;;16.80;9.27;;;;;;;13.75;100.00;102412.94;10313422;28;20074;-76
2023/06/01 06:56:00;;;;;;;8.10;7.10;;;;;;;14.03;100.00;102426.84;10264758;28;20058;-76
2023/06/01 07:01:04;;;;;;;17.10;8.35;;;;;;;14.23;99.33;102432.66;10264176;28;20397;-76
2023/06/01 07:06:05;;;;;;;11.40;8.10;;;;;;;14.03;100.00;102426.84;10279354;28;20035;-76
2023/06/01 07:11:05;;;;;;;9.50;6.82;;;;;;;14.14;100.00;102436.47;10279942;28;20034;-76
2023/06/01 07:16:05;;;;;;;19.10;9.52;;;;;;;14.82;100.00;102440.06;10280056;28;20050;-77
2023/06/01 07:21:06;;;;;;;7.07;6.38;;;;;;;15.29;97.21;102427.91;10279599;28;20043;-76
2023/06/01 07:26:06;;;;;;;9.70;7.43;;;;;;;15.22;91.62;102429.66;10263595;28;20035;-76
2023/06/01 07:31:07;;;;;;;12.40;6.32;;;;;;;15.31;93.64;102432.09;10280005;28;20027;-77
2023/06/01 07:36:07;;;;;;;9.05;7.57;;;;;;;15.48;93.07;102438.19;10297016;28;20090;-77
2023/06/01 07:41:09;;;;;;;6.53;5.65;;;;;;;16.28;89.94;102430.81;10278355;28;20454;-77
2023/06/01 07:46:10;;;;;;;11.88;6.15;;;;;;;16.10;90.27;102431.28;10262309;28;20141;-77
2023/06/01 07:51:10;;;;;;;12.85;6.88;;;;;;;16.63;88.66;102433.59;10296220;28;20038;-77
2023/06/01 07:56:11;;;;;;;13.48;6.97;;;;;;;16.47;79.73;102432.84;10294627;28;20541;-77
2023/06/01 08:01:11;;;;;;;12.15;5.72;;;;;;;16.47;85.16;102443.78;10295601;28;20041;-77
2023/06/01 08:06:12;;;;;;;8.75;6.20;;;;;;;16.80;81.93;102448.66;10277711;28;20455;-77
2023/06/01 08:11:12;;;;;;;9.48;7.15;;;;;;;17.43;78.96;102437.59;10278609;28;20061;-77
2023/06/01 08:16:13;;;;;;;5.40;4.65;;;;;;;18.70;71.09;102422.09;10277985;28;20438;-77
2023/06/01 08:21:13;;;;;;;7.45;5.45;;;;;;;19.73;66.38;102435.84;10277538;28;20079;-77
2023/06/01 08:26:15;;;;;;;7.00;5.10;;;;;;;20.34;60.65;102412.31;10294402;28;20054;-77
2023/06/01 08:31:16;;;;;;;9.10;6.22;;;;;;;19.94;58.49;102420.88;10278097;28;20131;-77
2023/06/01 08:36:17;;;;;;;6.38;5.75;;;;;;;20.77;61.90;102422.47;10277779;28;20116;-77
2023/06/01 08:41:20;;;;;;;6.95;5.65;;;;;;;21.07;56.80;102417.91;10293792;28;20554;-77
2023/06/01 08:46:22;;;;;;;6.30;4.05;;;;;;;21.64;56.28;102420.34;10260111;28;20482;-77
2023/06/01 08:51:23;;;;;;;7.32;5.28;;;;;;;21.16;57.81;102417.59;10294128;28;20065;-77
2023/06/01 08:56:28;;;;;;;5.28;4.57;;;;;;;22.18;56.07;102395.56;10259879;28;20126;-78
2023/06/01 09:01:29;;;;;;;7.60;5.55;;;;;;;22.58;57.07;102394.81;10260233;28;20054;-77
2023/06/01 09:06:30;;;;;;;11.65;5.07;;;;;;;22.50;52.71;102404.31;10258519;28;20451;-78
2023/06/01 09:11:38;;;;;;;9.32;4.88;;;;;;;22.86;54.55;102394.88;10260112;28;20039;-78
2023/06/01 09:16:39;;;;;;;6.88;5.15;;;;;;;23.34;50.78;102410.25;10259494;28;20335;-78
2023/06/01 09:21:40;;;;;;;5.32;4.40;;;;;;;22.70;52.84;102392.88;10290206;28;20061;-78
2023/06/01 09:26:40;;;;;;;6.07;5.43;;;;;;;23.06;51.70;102382.59;10259152;28;20063;-78
2023/06/01 09:31:44;;;;;;;7.15;5.25;;;;;;;23.82;51.44;102374.94;10274781;28;20061;-78
2023/06/01 09:36:45;;;;;;;16.55;4.78;;;;;;;23.30;49.94;102378.69;10291408;28;20039;-78
2023/06/01 09:41:50;;;;;;;11.35;4.13;;;;;;;23.88;54.71;102377.53;10275036;28;20037;-78
2023/06/01 09:47:10;;;;;;;14.05;4.47;;;;;;;24.39;46.07;102376.66;10275436;28;20034;-78
2023/06/01 09:52:16;;;;;;;5.75;4.32;;;;;;;24.63;53.30;102366.22;10276743;28;20081;-78
2023/06/01 09:57:24;;;;;;;8.18;4.15;;;;;;;24.96;50.08;102384.69;10275922;28;20473;-78
2023/06/01 10:02:27;;;;;;;4.25;3.85;;;;;;;25.06;46.86;102368.16;10274688;28;20369;-78
2023/06/01 10:07:31;;;;;;;8.52;5.00;;;;;;;25.18;50.97;102366.13;10259827;28;20131;-78
2023/06/01 10:12:32;;;;;;;8.70;4.47;;;;;;;25.23;49.08;102368.09;10258715;28;20474;-78
2023/06/01 10:17:33;;;;;;;4.82;3.97;;;;;;;25.19;50.28;102359.47;10275920;28;20043;-78
2023/06/01 10:22:33;;;;;;;10.85;4.72;;;;;;;25.65;52.21;102353.53;10282474;28;20054;-78
2023/06/01 10:27:38;;;;;;;8.20;3.53;;;;;;;25.51;49.53;102362.28;10299499;28;20042;-78
2023/06/01 10:32:57;;;;;;;3.65;3.38;;;;;;;25.33;49.27;102353.50;10281131;28;20029;-78
2023/06/01 10:38:20;;;;;;;4.68;3.78;;;;;;;25.43;50.50;102353.59;10281098;28;20438;-78
2023/06/01 10:43:35;;;;;;;6.50;3.58;;;;;;;25.74;50.03;102355.56;10291209;28;20130;-78
2023/06/01 10:48:56;;;;;;;6.80;3.47;;;;;;;25.73;48.94;102353.88;10298355;28;20437;-78
2023/06/01 10:54:34;;;;;;;5.85;4.03;;;;;;;25.86;47.29;102366.53;10280710;28;20039;-78
2023/06/01 10:59:34;;;;;;;9.48;3.30;;;;;;;25.41;47.69;102361.38;10298809;28;20070;-78
2023/06/01 11:04:36;;;;;;;3.47;3.17;;;;;;;25.49;49.32;102363.66;10281732;28;20069;-78
2023/06/01 11:09:44;;;;;;;5.43;3.63;;;;;;;25.81;48.16;102360.09;10296711;28;20054;-78
2023/06/01 11:15:08;;;;;;;6.75;3.85;;;;;;;25.20;43.22;102349.22;10279423;28;20090;-78
2023/06/01 11:20:11;;;;;;;5.88;2.55;;;;;;;25.14;47.55;102342.75;10296364;28;20035;-78
2023/06/01 11:25:12;;;;;;;8.63;4.22;;;;;;;25.53;48.53;102348.16;10296681;28;20508;-78
2023/06/01 11:30:18;;;;;;;3.92;2.42;;;;;;;25.10;46.51;102360.16;10263532;28;20117;-78
2023/06/01 11:35:19;;;;;;;3.53;3.08;;;;;;;25.20;44.64;102350.03;10280229;28;20026;-78
2023/06/01 11:40:20;;;;;;;6.45;3.45;;;;;;;25.18;45.06;102349.47;10278875;28;20508;-78
2023/06/01 11:45:21;;;;;;;7.35;3.22;;;;;;;25.08;45.50;102340.16;10262984;28;20027;-78
2023/06/01 11:50:26;;;;;;;2.90;2.67;;;;;;;25.69;46.65;102340.81;10294521;28;20113;-78
2023/06/01 11:55:27;;;;;;;6.15;3.00;;;;;;;25.32;45.90;102343.53;10295979;28;20121;-79
2023/06/01 12:00:28;;;;;;;6.55;2.65;;;;;;;25.72;46.58;102338.34;10279078;28;20034;-78
2023/06/01 12:05:38;;;;;;;8.52;3.92;;;;;;;25.44;45.67;102331.16;10278274;28;20050;-78
2023/06/01 12:10:38;;;;;;;3.17;2.50;;;;;;;25.38;45.27;102346.06;10295959;28;20118;-78
2023/06/01 12:15:38;;;;;;;2.90;2.20;;;;;;;25.37;45.63;102338.03;10278302;28;20039;-78
2023/06/01 12:20:43;;;;;;;6.88;2.13;;;;;;;25.19;46.69;102337.28;10294754;28;20446;-78
2023/06/01 12:25:59;;;;;;;1.67;1.58;;;;;;;25.09;46.64;102345.47;10277679;28;20042;-78
2023/06/01 12:31:12;;;;;;;2.03;1.65;;;;;;;25.21;45.74;102343.41;10263333;28;20039;-78
2023/06/01 12:36:31;;;;;;;4.00;2.08;;;;;;;25.22;47.04;102347.84;10294654;28;20490;-78
2023/06/01 12:41:31;;;;;;;1.95;1.70;;;;;;;25.09;47.83;102347.41;10294284;28;20043;-78
2023/06/01 12:46:35;;;;;;;2.80;2.60;;;;;;;25.12;46.96;102347.75;10277443;28;20393;-78
2023/06/01 12:51:36;;;;;;;3.40;1.60;;;;;;;24.71;47.91;102351.94;10294349;28;20034;-78
2023/06/01 12:56:37;;;;;;;4.95;1.83;;;;;;;25.06;48.30;102348.75;10294270;28;20077;-78
2023/06/01 13:01:37;;;;;;;1.23;1.13;;;;;;;24.39;48.03;102340.66;10277741;28;20602;-78
2023/06/01 13:06:39;;;;;;;1.10;1.10;;;;;;;24.20;46.67;102335.41;10293775;28;20046;-78
2023/06/01 13:11:39;;;;;;;1.58;1.30;;;;;;;24.48;49.22;102336.41;10275498;28;20055;-78
2023/06/01 13:16:40;;;;;;;2.63;1.88;;;;;;;24.53;47.92;102328.97;10292549;28;20066;-78
2023/06/01 13:21:40;;;;;;;1.45;1.40;;;;;;;24.61;47.79;102333.25;10276097;28;20058;-78
2023/06/01 13:26:41;;;;;;;1.08;1.00;;;;;;;24.57;45.90;102326.56;10276508;28;20434;-78
2023/06/01 13:31:42;;;;;;;3.47;1.45;;;;;;;23.97;47.85;102344.75;10275947;28;20038;-78
2023/06/01 13:36:42;;;;;;;0.93;0.80;;;;;;;23.22;48.42;102340.38;10275457;28;20152;-78
2023/06/01 13:41:43;;;;;;;1.88;1.77;;;;;;;23.08;48.02;102339.00;10291914;28;20039;-78
2023/06/01 13:46:43;;;;;;;10.52;1.55;;;;;;;22.11;49.70;102331.31;10292504;28;20050;-78
2023/06/01 13:51:44;;;;;;;4.20;1.80;;;;;;;22.00;50.91;102327.50;10258794;28;20069;-78
2023/06/01 13:56:44;;;;;;;1.65;1.55;;;;;;;21.87;49.28;102319.44;10304938;28;20039;-78
2023/06/01 14:01:45;;;;;;;1.45;1.35;;;;;;;21.46;50.82;102333.03;10287775;28;20386;-78
2023/06/01 14:06:45;;;;;;;1.52;1.42;;;;;;;20.83;51.04;102334.31;10287960;28;20070;-78
2023/06/01 14:11:46;;;;;;;1.80;1.33;;;;;;;19.81;53.19;102346.78;10287855;28;20111;-77
2023/06/01 14:16:46;;;;;;;6.20;2.38;;;;;;;18.89;55.81;102338.00;10286750;28;20046;-77
2023/06/01 14:21:47;;;;;;;13.32;2.85;;;;;;;18.66;56.76;102346.72;10304202;28;20182;-77
2023/06/01 14:26:47;;;;;;;2.17;2.05;;;;;;;17.89;60.16;102350.03;10286497;28;20482;-78
2023/06/01 14:31:49;;;;;;;3.90;2.67;;;;;;;17.74;61.36;102345.75;10286686;28;20050;-77
2023/06/01 14:36:49;;;;;;;2.55;2.42;;;;;;;17.91;61.05;102340.75;10304213;28;20031;-77
2023/06/01 14:41:50;;;;;;;1.95;1.80;;;;;;;17.62;64.51;102329.13;10304456;28;20099;-77
2023/06/01 14:46:50;;;;;;;2.97;2.30;;;;;;;17.38;63.68;102328.66;10270456;28;20046;-77
2023/06/01 14:51:51;;;;;;;2.75;2.38;;;;;;;17.62;62.80;102316.28;10287009;28;20035;-76
2023/06/01 14:56:51;;;;;;;2.72;2.22;;;;;;;17.61;62.98;102319.19;10270407;28;20039;-77
2023/06/01 15:01:52;;;;;;;4.30;2.05;;;;;;;17.79;61.36;102305.75;10303515;28;20030;-77
2023/06/01 15:06:52;;;;;;;2.80;1.83;;;;;;;17.73;62.69;102306.56;10297620;28;20043;-77
2023/06/01 15:11:52;;;;;;;2.22;2.08;;;;;;;17.59;61.79;102305.72;10296504;28;20466;-77
2023/06/01 15:16:53;;;;;;;1.67;1.58;;;;;;;17.84;61.37;102308.72;10296360;28;20075;-77
2023/06/01 15:21:53;;;;;;;3.30;2.55;;;;;;;17.73;61.19;102303.00;10278671;28;20054;-77
2023/06/01 15:26:54;;;;;;;1.90;1.80;;;;;;;17.38;62.56;102297.69;10295207;28;20070;-77
2023/06/01 15:31:54;;;;;;;6.68;4.18;;;;;;;17.18;63.22;102298.50;10295635;28;20042;-77
2023/06/01 15:36:55;;;;;;;6.50;2.03;;;;;;;17.37;63.39;102287.81;10279027;28;20030;-77
2023/06/01 15:41:55;;;;;;;2.08;1.85;;;;;;;17.53;62.76;102297.50;10295538;28;20031;-77
2023/06/01 15:46:56;;;;;;;5.22;2.28;;;;;;;17.62;62.20;102293.50;10278750;28;20476;-77
2023/06/01 15:51:56;;;;;;;5.53;2.65;;;;;;;17.49;61.34;102288.88;10296634;28;20064;-77
2023/06/01 15:56:57;;;;;;;3.03;2.58;;;;;;;17.22;61.86;102290.72;10295734;28;20047;-77
2023/06/01 16:01:57;;;;;;;5.60;2.75;;;;;;;17.43;61.97;102284.25;10295087;28;20521;-77
2023/06/01 16:07:07;;;;;;;3.20;1.75;;;;;;;17.35;61.23;102279.78;10278628;28;20098;-76
2023/06/01 16:12:07;;;;;;;5.53;2.50;;;;;;;17.44;60.83;102270.31;10295252;28;20035;-77
2023/06/01 16:17:08;;;;;;;5.05;2.42;;;;;;;17.25;61.77;102273.88;10277875;28;20064;-77
2023/06/01 16:22:09;;;;;;;2.35;2.10;;;;;;;16.82;64.20;102274.22;10277705;28;20114;-77
2023/06/01 16:27:09;;;;;;;1.48;1.38;;;;;;;16.45;64.61;102280.97;10276749;28;20545;-77
2023/06/01 16:32:11;;;;;;;10.18;3.45;;;;;;;16.23;65.89;102266.53;10262502;28;20430;-77
2023/06/01 16:37:13;;;;;;;8.57;2.58;;;;;;;15.96;66.93;102263.66;10295921;28;20034;-77
2023/06/01 16:42:13;;;;;;;7.95;2.83;;;;;;;15.96;67.75;102271.84;10276047;28;20375;-77
2023/06/01 16:47:15;;;;;;;3.33;1.95;;;;;;;16.24;66.83;102262.75;10275629;28;20110;-77
2023/06/01 16:52:17;;;;;;;6.50;2.10;;;;;;;15.96;68.11;102265.56;10276434;28;20031;-77
2023/06/01 16:57:17;;;;;;;7.45;2.55;;;;;;;15.76;69.09;102265.38;10293915;28;20382;-77
2023/06/01 17:02:17;;;;;;;4.63;2.92;;;;;;;15.74;67.85;102262.03;10258862;28;20041;-77
2023/06/01 17:07:20;;;;;;;7.90;2.92;;;;;;;15.91;66.18;102260.66;10275579;28;20443;-77
2023/06/01 17:12:22;;;;;;;4.07;1.88;;;;;;;15.63;67.78;102273.44;10276608;28;20042;-77
2023/06/01 17:17:24;;;;;;;6.18;2.47;;;;;;;15.16;71.00;102258.56;10292735;28;20169;-77
2023/06/01 17:22:33;;;;;;;4.95;2.90;;;;;;;14.87;71.01;102253.00;10275445;28;20467;-76
2023/06/01 17:27:34;;;;;;;10.27;4.20;;;;;;;14.54;77.21;102257.22;10275382;28;20038;-77
2023/06/01 17:32:34;;;;;;;7.70;3.50;;;;;;;14.29;81.80;102251.19;10275056;28;20092;-76
2023/06/01 17:37:41;;;;;;;9.23;3.58;;;;;;;14.17;83.45;102254.41;10275843;28;20117;-76
2023/06/01 17:42:41;;;;;;;;;;;;;;;14.21;83.07;102245.88;10263539;28;20065;-76
2023/06/01 17:47:43;;;;;;;;;;;;;;;14.14;80.92;102240.31;10290628;28;19918;-77
2023/06/01 17:52:43;;;;;;;;;;;;;;;14.31;78.04;102244.53;10291606;28;20353;-77
2023/06/01 17:57:44;;;;;;;;;;;;;;;14.30;78.10;102242.00;10274310;28;20005;-77
2023/06/01 18:02:45;;;;;;;;;;;;;;;14.17;80.36;102245.41;10306948;28;19918;-77
2023/06/01 18:07:45;;;;;;;;;;;;;;;13.86;82.53;102240.13;10274548;28;19914;-77
2023/06/01 18:12:45;;;;;;;;;;;;;;;13.67;85.32;102245.06;10291760;28;20345;-76
2023/06/01 18:17:46;;;;;;;;;;;;;;;13.54;85.74;102250.31;10289832;28;19918;-77
2023/06/01 18:22:47;;;;;;;;;;;;;;;13.63;85.35;102246.47;10291694;28;19918;-77
2023/06/01 18:27:48;;;;;;;;;;;;;;;13.62;84.39;102239.31;10273394;28;20281;-76
2023/06/01 18:32:49;;;;;;;;;;;;;;;13.55;85.32;102238.38;10273883;28;19968;-77
2023/06/01 18:37:50;;;;;;;;;;;;;;;13.55;83.20;102249.25;10273914;28;20487;-75
2023/06/01 18:42:50;;;;;;;;;;;;;;;13.59;83.93;102249.75;10279665;28;19925;-76
2023/06/01 18:47:50;;;;;;;;;;;;;;;13.32;86.41;102232.97;10280821;28;20330;-75
2023/06/01 18:52:57;;;;;;;;;;;;;;;13.37;82.18;102232.41;10280768;28;19918;-75
2023/06/01 18:57:58;;;;;;;;;;;;;;;13.28;87.65;102230.81;10313034;28;19925;-75
2023/06/01 19:02:59;;;;;;;;;;;;;;;13.16;90.36;102242.09;10298126;28;19918;-74
2023/06/01 19:08:00;;;;;;;;;;;;;;;13.04;88.89;102230.78;10280708;28;19918;-74
2023/06/01 19:13:01;;;;;;;;;;;;;;;12.98;89.46;102234.22;10298471;28;20354;-75
2023/06/01 19:18:01;;;;;;;;;;;;;;;13.12;86.06;102234.47;10295496;28;20345;-75
2023/06/01 19:23:05;;;;;;;;;;;;;;;13.14;87.38;102246.84;10312019;28;19922;-75
2023/06/01 19:28:05;;;;;;;;;;;;;;;12.87;92.04;102244.69;10279736;28;19921;-75
2023/06/01 19:33:06;;;;;;;;;;;;;;;12.87;93.26;102239.25;10312628;28;19918;-75
2023/06/01 19:38:06;;;;;;;;;;;;;;;12.86;91.66;102227.53;10279982;28;19953;-76
2023/06/01 19:43:06;;;;;;;;;;;;;;;12.91;90.29;102225.09;10311207;28;19918;-75
2023/06/01 19:48:13;;;;;;;;;;;;;;;12.89;88.23;102234.44;10279463;28;19914;-74
2023/06/01 19:53:16;;;;;;;;;;;;;;;12.78;89.80;102233.84;10278261;28;19925;-75
2023/06/01 19:58:18;;;;;;;;;;;;;;;12.76;89.76;102237.75;10279924;28;20265;-76
2023/06/01 20:03:21;;;;;;;;;;;;;;;12.68;90.72;102241.38;10296451;28;19941;-76
2023/06/01 20:08:25;;;;;;;;;;;;;;;12.63;91.39;102243.78;10278036;28;19945;-76
2023/06/01 20:13:29;;;;;;;;;;;;;;;12.60;91.72;102246.00;10278840;28;20376;-75
2023/06/01 20:18:30;;;;;;;;;;;;;;;12.66;90.17;102246.16;10294104;28;20018;-74
2023/06/01 20:23:31;;;;;;;;;;;;;;;12.65;90.23;102247.19;10310785;28;19926;-75
2023/06/01 20:28:47;;;;;;;;;;;;;;;12.55;91.20;102249.28;10311058;28;20020;-76
2023/06/01 20:33:50;;;;;;;;;;;;;;;12.59;90.19;102257.91;10277174;28;19952;-76
2023/06/01 20:38:50;;;;;;;;;;;;;;;12.66;88.71;102250.72;10294177;28;19914;-75
2023/06/01 20:43:51;;;;;;;;;;;;;;;12.51;91.13;102248.78;10295043;28;20246;-76
2023/06/01 20:48:55;;;;;;;;;;;;;;;12.54;89.04;102247.59;10292652;28;20339;-75
2023/06/01 20:53:57;;;;;;;;;;;;;;;12.43;89.57;102247.97;10277245;28;19933;-74
2023/06/01 20:59:25;;;;;;;;;;;;;;;12.42;87.97;102246.28;10292171;28;19914;-75
2023/06/01 21:04:29;;;;;;;;;;;;;;;12.42;87.30;102246.28;10290270;28;20305;-76
2023/06/01 21:09:30;;;;;;;;;;;;;;;12.26;87.43;102248.03;10275254;28;19922;-74
2023/06/01 21:14:31;;;;;;;;;;;;;;;12.20;89.14;102253.34;10307637;28;19992;-74
2023/06/01 21:19:32;;;;;;;;;;;;;;;12.16;89.30;102262.84;10275920;28;19949;-74
2023/06/01 21:24:33;;;;;;;;;;;;;;;12.13;89.25;102264.03;10293879;28;19969;-77
2023/06/01 21:29:35;;;;;;;;;;;;;;;12.14;88.33;102260.31;10292775;28;20005;-77
2023/06/01 21:34:36;;;;;;;;;;;;;;;12.03;89.05;102263.41;10276656;28;19961;-77
2023/06/01 21:39:37;;;;;;;;;;;;;;;11.97;88.69;102266.81;10275454;28;20028;-77
2023/06/01 21:44:38;;;;;;;;;;;;;;;11.83;88.58;102269.16;10291397;28;20344;-77
2023/06/01 21:49:38;;;;;;;;;;;;;;;11.84;87.04;102284.47;10275174;28;20361;-77
2023/06/01 21:54:39;;;;;;;;;;;;;;;11.83;87.79;102281.88;10275534;28;19918;-80
2023/06/01 21:59:39;;;;;;;;;;;;;;;11.84;87.14;102276.34;10308583;28;19918;-79
2023/06/01 22:04:40;;;;;;;;;;;;;;;11.85;86.40;102283.44;10292352;28;20008;-79
2023/06/01 22:09:41;;;;;;;;;;;;;;;11.89;87.49;102273.09;10275056;28;19918;-79
2023/06/01 22:14:44;;;;;;;;;;;;;;;11.84;88.44;102283.59;10277492;28;19941;-80
2023/06/01 22:19:44;;;;;;;;;;;;;;;11.73;88.38;102279.34;10283400;28;20342;-79
2023/06/01 22:24:46;;;;;;;;;;;;;;;11.75;87.22;102271.91;10282302;28;19918;-80
2023/06/01 22:29:47;;;;;;;;;;;;;;;11.69;86.09;102288.88;10315268;28;20365;-80
2023/06/01 22:34:48;;;;;;;;;;;;;;;11.68;84.95;102291.72;10300126;28;19948;-79
2023/06/01 22:39:49;;;;;;;;;;;;;;;11.70;83.73;102289.72;10299224;28;19969;-79
2023/06/01 22:44:51;;;;;;;;;;;;;;;11.61;84.85;102291.56;10282174;28;20361;-80
2023/06/01 22:49:56;;;;;;;;;;;;;;;11.53;84.60;102297.84;10298052;28;19914;-80
2023/06/01 22:54:56;;;;;;;;;;;;;;;11.46;84.62;102296.00;10285079;28;19921;-80
2023/06/01 23:00:01;;;;;;;;;;;;;;;11.55;82.81;102303.97;10298119;28;19918;-80
2023/06/01 23:05:12;;;;;;;;;;;;;;;11.56;82.40;102294.81;10297974;28;20389;-79
2023/06/01 23:10:13;;;;;;;;;;;;;;;11.54;82.54;102299.53;10297112;28;19935;-79
2023/06/01 23:15:14;;;;;;;;;;;;;;;11.49;83.22;102293.78;10281181;28;19918;-79
2023/06/01 23:20:16;;;;;;;;;;;;;;;11.50;83.08;102290.06;10280744;28;19925;-80
2023/06/01 23:25:27;;;;;;;;;;;;;;;11.45;84.41;102278.84;10279874;28;19941;-79
2023/06/01 23:30:37;;;;;;;;;;;;;;;11.57;83.01;102277.50;10297811;28;19914;-80